Terminal Aerodrome Forecast
Issued by NWS Lake Charles, LA

Home | Current Version | Previous Version | Text Only | Print | Product List | Glossary On
Versions: 1 2 3 4 5 6 7 8 9 10 11 12 13 14 15 16 17 18 19 20 21 22 23
371
FTUS44 KLCH 181729
TAFBPT
TAF
KBPT 181729Z 1818/1918 03006KT P6SM VCSH OVC020
     FM182100 VRB05KT P6SM VCTS OVC015CB
     FM190000 VRB05KT 4SM BR OVC007
     FM190600 VRB04KT 1SM BR OVC003
     FM191500 16008KT P6SM VCSH OVC005=

USA.gov is the U.S. government's official web portal to all federal, state and local government web resources and services.